createdAt,value
2023-02-02T00:02:02.837Z,17.23
2023-02-02T00:04:32.632Z,18.13
2023-02-02T00:06:59.933Z,21.77
2023-02-02T00:09:30.471Z,20.67
2023-02-02T00:11:58.255Z,15.65
2023-02-02T00:14:25.278Z,26.55
2023-02-02T00:16:53.981Z,21.58
2023-02-02T00:19:31.646Z,25.23
2023-02-02T00:21:58.776Z,36.65
2023-02-02T00:24:25.572Z,37.47
2023-02-02T00:26:57.402Z,36.42
2023-02-02T00:29:29.728Z,25.38
2023-02-02T00:31:57.198Z,29.52
2023-02-02T00:34:24.592Z,29.08
2023-02-02T00:36:51.625Z,24.42
2023-02-02T00:39:21.510Z,24.02
2023-02-02T00:41:48.637Z,21.15
2023-02-02T00:44:34.237Z,23.02
2023-02-02T00:47:01.050Z,19.50
2023-02-02T00:49:27.797Z,25.65
2023-02-02T00:51:54.604Z,20.90
2023-02-02T00:54:21.755Z,28.45
2023-02-02T00:56:48.584Z,21.00
2023-02-02T00:59:15.358Z,17.98
2023-02-02T01:01:42.082Z,21.90
2023-02-02T01:04:08.897Z,19.90
2023-02-02T01:06:35.905Z,21.58
2023-02-02T01:09:03.058Z,15.10
2023-02-02T01:11:30.987Z,17.98
2023-02-02T01:13:58.074Z,21.70
2023-02-02T01:16:25.275Z,18.13
2023-02-02T01:18:52.406Z,22.13
2023-02-02T01:21:19.616Z,23.55
2023-02-02T01:23:46.466Z,18.50
2023-02-02T01:26:14.299Z,16.52
2023-02-02T01:28:41.616Z,20.80
2023-02-02T01:31:16.764Z,19.75
2023-02-02T01:33:45.003Z,19.50
2023-02-02T01:36:15.450Z,16.23
2023-02-02T01:38:42.542Z,21.95
2023-02-02T01:41:13.643Z,18.75
2023-02-02T01:43:43.981Z,21.63
2023-02-02T01:46:24.637Z,14.55
2023-02-02T01:48:53.843Z,13.50
2023-02-02T01:51:24.092Z,17.70
2023-02-02T01:53:53.722Z,19.98
2023-02-02T01:56:36.644Z,17.38
2023-02-02T01:59:04.658Z,20.40
2023-02-02T02:01:31.771Z,21.98
2023-02-02T02:03:58.968Z,23.77
2023-02-02T02:06:26.143Z,21.40
2023-02-02T02:09:00.285Z,23.60
2023-02-02T02:11:27.289Z,18.02
2023-02-02T02:14:32.653Z,19.25
2023-02-02T02:17:22.311Z,19.00
2023-02-02T02:20:38.993Z,16.40
2023-02-02T02:23:27.116Z,20.33
2023-02-02T02:26:21.454Z,19.20
2023-02-02T02:29:25.396Z,24.90
2023-02-02T02:32:16.699Z,18.52
2023-02-02T02:34:56.745Z,19.55
2023-02-02T02:37:39.784Z,18.75
2023-02-02T02:40:28.348Z,14.30
2023-02-02T02:42:59.439Z,21.20
2023-02-02T02:45:28.009Z,27.27
2023-02-02T02:47:55.370Z,24.30
2023-02-02T02:50:23.076Z,22.52
2023-02-02T02:52:59.864Z,23.73
2023-02-02T02:55:32.913Z,28.45
2023-02-02T02:58:07.996Z,23.35
2023-02-02T03:00:44.009Z,22.80
2023-02-02T03:06:19.797Z,19.63
2023-02-02T03:08:54.233Z,38.83
2023-02-02T03:11:21.428Z,23.52
2023-02-02T03:13:48.938Z,26.33
2023-02-02T03:16:16.527Z,24.80
2023-02-02T03:18:43.605Z,25.90
2023-02-02T03:21:10.430Z,24.65
2023-02-02T03:23:37.346Z,26.65
2023-02-02T03:26:04.270Z,27.17
2023-02-02T03:28:32.150Z,28.92
2023-02-02T03:31:01.440Z,22.20
2023-02-02T03:33:28.593Z,24.10
2023-02-02T03:35:55.288Z,23.73
2023-02-02T03:38:22.049Z,28.75
2023-02-02T03:40:48.777Z,28.55
2023-02-02T03:43:22.436Z,28.17
2023-02-02T03:45:55.061Z,27.17
2023-02-02T03:48:21.748Z,24.70
2023-02-02T03:50:48.447Z,31.30
2023-02-02T03:53:15.152Z,25.15
2023-02-02T03:55:41.975Z,22.30
2023-02-02T03:58:08.698Z,21.00
2023-02-02T04:00:35.487Z,18.95
2023-02-02T04:03:02.282Z,19.10
2023-02-02T04:05:29.198Z,16.80
2023-02-02T04:07:55.951Z,25.60
2023-02-02T04:10:22.971Z,21.95
2023-02-02T04:12:49.781Z,21.45
2023-02-02T04:15:16.574Z,22.52
2023-02-02T04:17:43.480Z,21.52
2023-02-02T04:20:11.260Z,17.70
2023-02-02T04:22:38.018Z,19.10
2023-02-02T04:25:05.080Z,18.08
2023-02-02T04:27:33.967Z,20.95
2023-02-02T04:30:00.909Z,22.17
2023-02-02T04:32:27.639Z,29.42
2023-02-02T04:34:54.339Z,26.02
2023-02-02T04:37:21.099Z,24.60
2023-02-02T04:39:48.689Z,17.88
2023-02-02T04:42:15.483Z,25.10
2023-02-02T04:44:44.029Z,29.40
2023-02-02T04:47:10.711Z,26.08
2023-02-02T04:49:37.929Z,19.75
2023-02-02T04:52:04.900Z,22.95
2023-02-02T04:54:32.318Z,26.75
2023-02-02T04:56:59.029Z,27.67
2023-02-02T04:59:28.586Z,24.58
2023-02-02T05:01:56.436Z,19.17
2023-02-02T05:04:23.220Z,23.33
2023-02-02T05:06:49.941Z,23.65
2023-02-02T05:09:16.796Z,27.90
2023-02-02T05:11:44.576Z,26.45
2023-02-02T05:14:12.091Z,20.70
2023-02-02T05:16:39.712Z,26.98
2023-02-02T05:19:06.482Z,30.90
2023-02-02T05:21:33.261Z,23.70
2023-02-02T05:24:01.485Z,27.23
2023-02-02T05:26:28.232Z,23.85
2023-02-02T05:28:56.038Z,21.85
2023-02-02T05:31:22.843Z,20.55
2023-02-02T05:33:49.639Z,22.60
2023-02-02T05:36:16.333Z,23.10
2023-02-02T05:38:43.056Z,24.95
2023-02-02T05:41:09.835Z,25.02
2023-02-02T05:43:36.717Z,23.60
2023-02-02T05:46:04.043Z,23.98
2023-02-02T05:48:30.880Z,20.17
2023-02-02T05:51:18.760Z,20.63
2023-02-02T05:53:46.180Z,21.10
2023-02-02T05:56:13.485Z,20.02
2023-02-02T05:58:40.297Z,23.98
2023-02-02T06:01:07.209Z,22.40
2023-02-02T06:03:34.142Z,22.13
2023-02-02T06:06:01.092Z,18.65
2023-02-02T06:08:27.894Z,24.10
2023-02-02T06:10:54.658Z,25.55
2023-02-02T06:13:22.143Z,29.55
2023-02-02T06:15:49.360Z,22.08
2023-02-02T06:18:16.164Z,25.05
2023-02-02T06:20:42.967Z,24.98
2023-02-02T06:23:09.801Z,26.48
2023-02-02T06:25:36.499Z,24.45
2023-02-02T06:28:03.547Z,23.35
2023-02-02T06:30:30.333Z,29.45
2023-02-02T06:32:59.396Z,20.45
2023-02-02T06:35:26.433Z,25.85
2023-02-02T06:37:53.740Z,27.88
2023-02-02T06:40:20.618Z,27.60
2023-02-02T06:42:47.289Z,27.38
2023-02-02T06:45:14.005Z,26.17
2023-02-02T06:47:40.819Z,27.70
2023-02-02T06:50:08.802Z,27.75
2023-02-02T06:52:35.599Z,23.85
2023-02-02T06:55:02.320Z,22.15
2023-02-02T06:57:29.076Z,21.20
2023-02-02T06:59:55.855Z,22.50
2023-02-02T07:02:23.504Z,32.33
2023-02-02T07:04:51.197Z,26.83
2023-02-02T07:07:17.934Z,27.33
2023-02-02T07:09:44.644Z,31.73
2023-02-02T07:12:11.447Z,29.80
2023-02-02T07:14:38.287Z,28.85
2023-02-02T07:17:05.319Z,23.20
2023-02-02T07:19:32.183Z,23.42
2023-02-02T07:21:59.048Z,19.92
2023-02-02T07:24:27.554Z,23.65
2023-02-02T07:26:56.775Z,19.58
2023-02-02T07:29:23.579Z,21.08
2023-02-02T07:31:50.384Z,24.65
2023-02-02T07:34:17.130Z,21.98
2023-02-02T07:36:43.821Z,20.75
2023-02-02T07:39:12.056Z,23.25
2023-02-02T07:41:39.019Z,17.90
2023-02-02T07:44:07.029Z,20.55
2023-02-02T07:46:33.930Z,16.85
2023-02-02T07:49:00.944Z,18.02
2023-02-02T07:51:27.693Z,20.08
2023-02-02T07:53:58.464Z,19.52
2023-02-02T07:56:28.160Z,20.55
2023-02-02T07:58:56.561Z,21.45
2023-02-02T08:01:26.109Z,21.55
2023-02-02T08:03:55.064Z,17.67
2023-02-02T08:06:26.078Z,21.00
2023-02-02T08:08:52.765Z,19.90
2023-02-02T08:11:21.608Z,20.13
2023-02-02T08:13:56.993Z,20.27
2023-02-02T08:16:24.895Z,18.63
2023-02-02T08:18:52.254Z,23.38
2023-02-02T08:21:19.727Z,23.52
2023-02-02T08:23:47.325Z,19.70
2023-02-02T08:26:18.816Z,22.67
2023-02-02T08:28:49.089Z,19.63
2023-02-02T08:31:25.209Z,18.08
2023-02-02T08:33:53.990Z,22.35
2023-02-02T08:36:22.861Z,23.88
2023-02-02T08:38:50.020Z,26.27
2023-02-02T08:41:19.163Z,23.52
2023-02-02T08:43:46.038Z,19.33
2023-02-02T08:46:15.005Z,20.15
2023-02-02T08:48:42.243Z,25.95
2023-02-02T08:51:11.636Z,21.02
2023-02-02T08:53:38.955Z,19.70
2023-02-02T08:56:09.478Z,18.45
2023-02-02T08:58:37.422Z,20.75
2023-02-02T09:01:09.297Z,22.55
2023-02-02T09:03:38.911Z,20.55
2023-02-02T09:06:13.932Z,21.15
2023-02-02T09:08:41.430Z,21.33
2023-02-02T09:11:10.960Z,20.63
2023-02-02T09:13:38.830Z,15.98
2023-02-02T09:16:08.446Z,16.13
2023-02-02T09:18:35.352Z,14.02
2023-02-02T09:21:05.401Z,14.32
2023-02-02T09:23:37.574Z,13.02
2023-02-02T09:26:25.844Z,14.10
2023-02-02T09:28:55.385Z,12.02
2023-02-02T09:31:22.858Z,15.77
2023-02-02T09:33:49.867Z,12.45
2023-02-02T09:36:20.397Z,16.50
2023-02-02T09:38:48.159Z,14.95
2023-02-02T09:41:45.994Z,15.30
2023-02-02T09:44:47.761Z,14.43
2023-02-02T09:47:34.812Z,17.33
2023-02-02T09:50:38.200Z,15.25
2023-02-02T09:53:26.454Z,16.17
2023-02-02T09:55:56.776Z,17.20
2023-02-02T09:58:39.840Z,17.48
2023-02-02T10:01:30.206Z,21.27
2023-02-02T10:04:21.656Z,15.75
2023-02-02T10:06:53.654Z,18.30
2023-02-02T10:09:43.537Z,16.15
2023-02-02T10:12:31.898Z,20.63
2023-02-02T10:15:13.742Z,19.17
2023-02-02T10:18:18.515Z,20.05
2023-02-02T10:20:56.212Z,16.15
2023-02-02T10:23:28.791Z,21.30
2023-02-02T10:26:19.883Z,19.00
2023-02-02T10:28:58.238Z,17.73
2023-02-02T10:31:41.003Z,19.52
2023-02-02T10:34:19.880Z,16.30
2023-02-02T10:36:46.564Z,19.15
2023-02-02T10:39:24.580Z,20.25
2023-02-02T10:42:29.635Z,13.93
2023-02-02T10:45:20.584Z,20.08
2023-02-02T10:47:47.482Z,15.90
2023-02-02T10:50:14.291Z,16.42
2023-02-02T10:52:46.340Z,17.77
2023-02-02T10:55:37.038Z,19.48
2023-02-02T10:58:12.991Z,18.25
2023-02-02T11:03:20.207Z,20.13
2023-02-02T11:06:06.042Z,13.73
2023-02-02T11:08:42.306Z,13.75
2023-02-02T11:11:11.189Z,19.73
2023-02-02T11:13:44.183Z,19.13
2023-02-02T11:16:17.023Z,20.80
2023-02-02T11:18:45.758Z,20.48
2023-02-02T11:21:21.647Z,15.68
2023-02-02T11:24:14.620Z,18.98
2023-02-02T11:26:47.527Z,18.90
2023-02-02T11:29:18.640Z,18.77
2023-02-02T11:31:45.749Z,15.27
2023-02-02T11:34:28.295Z,15.93
2023-02-02T11:37:05.754Z,15.73
2023-02-02T11:39:32.525Z,18.58
2023-02-02T11:42:06.382Z,17.80
2023-02-02T11:44:35.787Z,15.77
2023-02-02T11:47:05.444Z,14.13
2023-02-02T11:49:43.259Z,15.95
2023-02-02T11:52:18.960Z,14.68
2023-02-02T11:54:49.236Z,12.98
2023-02-02T11:57:22.126Z,14.95
2023-02-02T12:00:27.351Z,14.40
2023-02-02T12:02:54.503Z,14.70
2023-02-02T12:05:21.138Z,17.90
2023-02-02T12:07:49.130Z,11.05
2023-02-02T12:10:44.004Z,16.48
2023-02-02T12:13:34.770Z,12.98
2023-02-02T12:16:26.229Z,11.73
2023-02-02T12:19:19.044Z,13.88
2023-02-02T12:22:15.777Z,13.60
2023-02-02T12:25:14.882Z,12.55
2023-02-02T12:28:03.732Z,16.08
2023-02-02T12:31:09.184Z,17.52
2023-02-02T12:33:38.737Z,13.30
2023-02-02T12:36:30.550Z,12.23
2023-02-02T12:39:32.629Z,17.75
2023-02-02T12:42:25.111Z,18.05
2023-02-02T12:45:10.117Z,19.40
2023-02-02T12:47:52.035Z,14.70
2023-02-02T12:50:34.064Z,13.30
2023-02-02T12:53:18.665Z,20.00
2023-02-02T12:55:52.857Z,15.05
2023-02-02T12:58:38.993Z,13.50
2023-02-02T13:01:43.023Z,16.38
2023-02-02T13:04:21.872Z,17.33
2023-02-02T13:07:18.159Z,17.25
2023-02-02T13:10:06.152Z,23.08
2023-02-02T13:12:38.359Z,19.38
2023-02-02T13:15:10.030Z,19.23
2023-02-02T13:17:45.129Z,22.55
2023-02-02T13:20:34.467Z,19.57
2023-02-02T13:23:09.048Z,23.33
2023-02-02T13:25:42.343Z,22.77
2023-02-02T13:28:18.582Z,22.70
2023-02-02T13:30:47.781Z,22.55
2023-02-02T13:33:20.117Z,22.33
2023-02-02T13:35:56.545Z,18.75
2023-02-02T13:38:25.503Z,19.83
2023-02-02T13:40:55.633Z,22.52
2023-02-02T13:43:51.603Z,23.58
2023-02-02T13:46:27.316Z,23.75
2023-02-02T13:49:10.797Z,24.45
2023-02-02T13:52:02.045Z,23.00
2023-02-02T13:54:40.984Z,21.88
2023-02-02T13:57:28.229Z,22.38
2023-02-02T14:00:15.434Z,22.63
2023-02-02T14:02:44.235Z,21.10
2023-02-02T14:05:22.120Z,21.48
2023-02-02T14:07:49.398Z,21.52
2023-02-02T14:10:31.708Z,25.65
2023-02-02T14:13:34.714Z,26.10
2023-02-02T14:16:06.079Z,31.27
2023-02-02T14:19:06.696Z,30.08
2023-02-02T14:21:33.486Z,28.80
2023-02-02T14:24:05.409Z,29.05
2023-02-02T14:26:59.560Z,36.38
2023-02-02T14:29:31.461Z,33.17
2023-02-02T14:32:27.833Z,30.00
2023-02-02T14:35:20.362Z,33.22
2023-02-02T14:38:08.144Z,29.45
2023-02-02T14:41:10.386Z,36.13
2023-02-02T14:43:49.654Z,32.45
2023-02-02T14:46:23.432Z,30.55
2023-02-02T14:48:57.191Z,32.83
2023-02-02T14:51:26.917Z,28.48
2023-02-02T14:54:01.251Z,29.20
2023-02-02T14:56:45.601Z,31.88
2023-02-02T14:59:20.277Z,35.95
2023-02-02T15:01:59.587Z,28.80
2023-02-02T15:04:28.476Z,27.42
2023-02-02T15:06:55.991Z,26.70
2023-02-02T15:09:29.368Z,26.73
2023-02-02T15:12:01.013Z,28.38
2023-02-02T15:14:52.892Z,31.17
2023-02-02T15:17:28.575Z,30.50
2023-02-02T15:20:13.871Z,28.17
2023-02-02T15:22:53.853Z,34.40
2023-02-02T15:25:49.613Z,29.77
2023-02-02T15:28:47.314Z,29.17
2023-02-02T15:31:20.372Z,28.77
2023-02-02T15:33:53.696Z,29.85
2023-02-02T15:36:26.701Z,28.40
2023-02-02T15:38:57.879Z,31.42
2023-02-02T15:41:32.863Z,35.83
2023-02-02T15:44:02.347Z,31.88
2023-02-02T15:46:35.127Z,33.95
2023-02-02T15:49:33.267Z,31.38
2023-02-02T15:52:10.190Z,38.25
2023-02-02T15:57:33.830Z,39.97
2023-02-02T16:00:20.840Z,39.90
2023-02-02T16:02:52.112Z,42.08
2023-02-02T16:05:25.198Z,43.67
2023-02-02T16:08:03.706Z,50.50
2023-02-02T16:10:31.924Z,44.28
2023-02-02T16:12:58.981Z,45.85
2023-02-02T16:15:28.377Z,44.83
2023-02-02T16:18:00.763Z,40.55
2023-02-02T16:20:31.444Z,48.30
2023-02-02T16:23:04.347Z,39.63
2023-02-02T16:25:34.633Z,38.58
2023-02-02T16:28:03.289Z,40.75
2023-02-02T16:30:33.192Z,34.40
2023-02-02T16:33:26.720Z,47.08
2023-02-02T16:35:54.189Z,35.30
2023-02-02T16:38:30.660Z,36.17
2023-02-02T16:41:24.641Z,38.30
2023-02-02T16:43:51.693Z,36.70
2023-02-02T16:46:45.965Z,37.97
2023-02-02T16:49:23.443Z,42.58
2023-02-02T16:52:09.971Z,36.60
2023-02-02T16:57:04.740Z,38.83
2023-02-02T16:59:37.713Z,32.38
2023-02-02T17:02:35.466Z,34.83
2023-02-02T17:05:07.802Z,33.13
2023-02-02T17:07:37.945Z,31.38
2023-02-02T17:10:24.235Z,31.15
2023-02-02T17:12:51.065Z,32.40
2023-02-02T17:15:17.894Z,31.77
2023-02-02T17:17:47.777Z,32.97
2023-02-02T17:20:19.215Z,29.10
2023-02-02T17:22:53.209Z,30.33
2023-02-02T17:25:27.786Z,24.52
2023-02-02T17:27:55.924Z,25.10
2023-02-02T17:30:22.947Z,25.63
2023-02-02T17:32:49.701Z,26.13
2023-02-02T17:35:19.421Z,23.00
2023-02-02T17:37:46.316Z,31.05
2023-02-02T17:40:17.848Z,30.73
2023-02-02T17:42:47.190Z,28.75
2023-02-02T17:45:20.171Z,29.20
2023-02-02T17:47:47.158Z,31.20
2023-02-02T17:50:14.237Z,33.00
2023-02-02T17:52:41.442Z,34.88
2023-02-02T17:55:21.355Z,31.55
2023-02-02T17:57:52.710Z,29.35
2023-02-02T18:00:22.930Z,33.47
2023-02-02T18:02:57.595Z,30.10
2023-02-02T18:05:24.750Z,30.00
2023-02-02T18:07:51.935Z,34.78
2023-02-02T18:10:19.531Z,30.55
2023-02-02T18:12:46.283Z,27.48
2023-02-02T18:15:14.827Z,32.75
2023-02-02T18:17:42.277Z,32.50
2023-02-02T18:20:10.542Z,29.65
2023-02-02T18:22:38.279Z,28.98
2023-02-02T18:25:06.095Z,26.20
2023-02-02T18:27:33.016Z,28.45
2023-02-02T18:29:59.915Z,28.05
2023-02-02T18:32:26.764Z,31.83
2023-02-02T18:34:55.857Z,29.67
2023-02-02T18:37:28.339Z,28.30
2023-02-02T18:39:55.202Z,32.47
2023-02-02T18:42:22.221Z,36.20
2023-02-02T18:44:49.024Z,31.17
2023-02-02T18:47:15.929Z,31.13
2023-02-02T18:49:42.758Z,34.30
2023-02-02T18:52:09.475Z,32.50
2023-02-02T18:54:36.368Z,29.55
2023-02-02T18:57:03.307Z,29.15
2023-02-02T18:59:32.401Z,26.90
2023-02-02T19:01:59.202Z,26.67
2023-02-02T19:04:26.084Z,27.52
2023-02-02T19:07:11.586Z,29.35
2023-02-02T19:09:38.388Z,26.35
2023-02-02T19:12:12.748Z,25.95
2023-02-02T19:14:40.744Z,24.27
2023-02-02T19:17:24.703Z,27.58
2023-02-02T19:19:51.513Z,25.45
2023-02-02T19:22:26.989Z,26.80
2023-02-02T19:24:54.006Z,32.33
2023-02-02T19:27:23.557Z,29.50
2023-02-02T19:29:54.113Z,26.75
2023-02-02T19:32:23.535Z,27.38
2023-02-02T19:34:53.280Z,29.58
2023-02-02T19:37:24.889Z,24.75
2023-02-02T19:40:09.071Z,29.10
2023-02-02T19:42:44.443Z,28.02
2023-02-02T19:45:33.166Z,28.48
2023-02-02T19:48:06.919Z,24.88
2023-02-02T19:50:42.258Z,28.90
2023-02-02T19:53:14.924Z,27.55
2023-02-02T19:55:44.106Z,32.30
2023-02-02T19:58:16.835Z,27.45
2023-02-02T20:00:45.001Z,26.02
2023-02-02T20:03:17.466Z,29.63
2023-02-02T20:05:47.306Z,31.13
2023-02-02T20:08:43.077Z,27.20
2023-02-02T20:11:36.137Z,25.70
2023-02-02T20:14:19.253Z,26.48
2023-02-02T20:16:52.579Z,25.40
2023-02-02T20:19:35.276Z,27.60
2023-02-02T20:22:03.526Z,26.98
2023-02-02T20:24:42.401Z,26.15
2023-02-02T20:27:22.774Z,29.30
2023-02-02T20:29:51.596Z,30.70
2023-02-02T20:32:26.611Z,28.25
2023-02-02T20:34:56.994Z,27.33
2023-02-02T20:37:29.314Z,28.52
2023-02-02T20:39:58.857Z,31.25
2023-02-02T20:42:25.907Z,25.17
2023-02-02T20:44:52.961Z,34.45
2023-02-02T20:47:20.176Z,27.75
2023-02-02T20:49:47.593Z,32.25
2023-02-02T20:52:24.085Z,30.25
2023-02-02T20:54:52.062Z,25.10
2023-02-02T20:57:19.062Z,24.67
2023-02-02T20:59:45.786Z,25.30
2023-02-02T21:02:19.378Z,28.73
2023-02-02T21:04:51.527Z,29.38
2023-02-02T21:07:20.968Z,26.27
2023-02-02T21:09:49.986Z,25.02
2023-02-02T21:12:17.763Z,26.00
2023-02-02T21:14:47.744Z,25.83
2023-02-02T21:17:16.049Z,28.98
2023-02-02T21:19:43.572Z,27.10
2023-02-02T21:22:11.132Z,30.52
2023-02-02T21:24:38.268Z,31.75
2023-02-02T21:27:05.255Z,28.90
2023-02-02T21:29:33.129Z,28.98
2023-02-02T21:32:02.754Z,25.52
2023-02-02T21:34:31.036Z,29.75
2023-02-02T21:36:58.905Z,28.83
2023-02-02T21:39:30.477Z,25.80
2023-02-02T21:42:09.571Z,28.65
2023-02-02T21:44:57.943Z,28.48
2023-02-02T21:47:33.977Z,30.60
2023-02-02T21:52:45.071Z,30.92
2023-02-02T21:55:41.467Z,26.23
2023-02-02T21:58:14.098Z,27.10
2023-02-02T22:00:40.995Z,27.70
2023-02-02T22:03:34.290Z,30.42
2023-02-02T22:06:35.770Z,30.02
2023-02-02T22:09:02.449Z,29.83
2023-02-02T22:11:37.282Z,29.48
2023-02-02T22:14:16.952Z,26.95
2023-02-02T22:16:48.708Z,27.80
2023-02-02T22:19:43.506Z,27.65
2023-02-02T22:22:19.077Z,28.20
2023-02-02T22:24:51.012Z,26.65
2023-02-02T22:27:23.910Z,28.38
2023-02-02T22:29:56.873Z,28.42
2023-02-02T22:32:23.568Z,27.48
2023-02-02T22:34:50.317Z,27.65
2023-02-02T22:37:17.034Z,30.92
2023-02-02T22:39:43.758Z,28.77
2023-02-02T22:42:10.846Z,29.58
2023-02-02T22:44:37.602Z,27.58
2023-02-02T22:47:04.588Z,29.25
2023-02-02T22:49:31.492Z,29.23
2023-02-02T22:51:58.241Z,28.08
2023-02-02T22:54:24.975Z,29.50
2023-02-02T22:56:51.665Z,28.35
2023-02-02T22:59:18.417Z,26.95
2023-02-02T23:01:45.106Z,27.15
2023-02-02T23:04:12.026Z,34.33
2023-02-02T23:06:38.851Z,27.48
2023-02-02T23:09:05.525Z,29.83
2023-02-02T23:11:32.278Z,31.17
2023-02-02T23:13:58.961Z,34.47
2023-02-02T23:16:25.701Z,33.42
2023-02-02T23:18:52.479Z,32.28
2023-02-02T23:21:19.225Z,32.47
2023-02-02T23:23:45.928Z,35.92
2023-02-02T23:26:12.635Z,32.55
2023-02-02T23:28:39.399Z,34.30
2023-02-02T23:31:06.370Z,31.00
2023-02-02T23:33:33.253Z,29.88
2023-02-02T23:35:59.988Z,32.22
2023-02-02T23:38:26.697Z,31.38
2023-02-02T23:40:53.476Z,29.70
2023-02-02T23:43:20.203Z,30.45
2023-02-02T23:45:46.930Z,30.33
2023-02-02T23:48:13.820Z,27.95
2023-02-02T23:50:40.890Z,28.73
2023-02-02T23:53:09.737Z,27.10
2023-02-02T23:55:37.163Z,23.85
2023-02-02T23:58:04.069Z,27.40
